Armada Tuah 303 — V7ZX5 — position and weather

sailwx.info

Track history (hours):
 
Tides and Currents Weather Stations Pressure Air Temp Water Temp Dewpoint Dewpoint Depression Visibility Wind Speed Wind Dir Waves Ship Positions

Armada Tuah 303

Last reported at 2017-Aug-28 01:23 UTC. Time now 2017-Sep-19 15:13 UTC.
Position N 31°28' E 032°20'.
Warning: this ship's position is 22 days out of date.

Length 75 m; draft 6 m.

Type: Other ship. MMSI: 538004936.

Date/timePositionNaut miles runAvg speedWind from/ knotsBaromVisibWave heightAir tempDewpointWater temp
2017-Aug-28 01:23N 31°28' E 032°20'0 0.0
2017-Aug-28 00:59N 31°28' E 032°20'0 0.0
2017-Aug-28 00:02N 31°28' E 032°20'0 0.0
2017-Aug-27 23:59N 31°28' E 032°20'0 0.0
2017-Aug-27 23:29N 31°28' E 032°20'0 0.0
2017-Aug-27 22:56N 31°28' E 032°20'0 0.0
2017-Aug-27 22:26N 31°28' E 032°20'0 0.0
2017-Aug-27 21:59N 31°28' E 032°20'0 0.0
2017-Aug-27 21:23N 31°28' E 032°20'0 0.0
2017-Aug-27 20:59N 31°28' E 032°20'0 0.0
2017-Aug-27 20:23N 31°28' E 032°20'0 0.0
2017-Aug-27 19:47N 31°28' E 032°20'0 0.0
2017-Aug-27 19:20N 31°28' E 032°20'0 0.0
2017-Aug-27 18:47N 31°28' E 032°20'0 0.0
2017-Aug-27 18:29N 31°28' E 032°20'0 0.0
2017-Aug-27 17:59N 31°28' E 032°20'0 0.0
2017-Aug-27 17:29N 31°28' E 032°20'0 0.0
2017-Aug-27 16:59N 31°28' E 032°20'0 0.0
2017-Aug-27 16:29N 31°28' E 032°20'0 0.0
2017-Aug-27 15:47N 31°28' E 032°20'0 0.0
2017-Aug-27 15:29N 31°28' E 032°20'0 0.0
2017-Aug-27 14:59N 31°28' E 032°20'0 0.0
2017-Aug-27 14:29N 31°28' E 032°20'0 0.0
2017-Aug-27 13:56N 31°28' E 032°20'0 0.1
2017-Aug-27 13:29N 31°28' E 032°20'0 0.2
2017-Aug-27 13:01N 31°28' E 032°20'1 2.8
2017-Aug-27 12:30N 31°28' E 032°22'1 3.0
2017-Aug-27 12:00N 31°27' E 032°22'2 3.1
2017-Aug-27 11:30N 31°28' E 032°21'1 1.6
2017-Aug-27 10:37N 31°28' E 032°19'0 0.1
2017-Aug-27 10:13N 31°28' E 032°19'9 2.6
2017-Aug-27 06:48N 31°33' E 032°11'312.0
2017-Aug-27 06:30N 31°36' E 032°08'712.1
2017-Aug-27 05:56N 31°41' E 032°02'612.9
2017-Aug-27 05:30N 31°45' E 031°57'713.6
2017-Aug-27 05:00N 31°49' E 031°51'2613.4
2017-Aug-27 03:04N 31°57' E 031°22'113.6
2017-Aug-27 03:00N 31°58' E 031°21'2913.7
2017-Aug-27 00:55N 32°05' E 030°49'513.7
2017-Aug-27 00:31N 32°07' E 030°43'713.6
2017-Aug-27 00:00N 32°09' E 030°35'813.7
2017-Aug-26 23:26N 32°11' E 030°26'913.4
2017-Aug-26 22:48N 32°14' E 030°16'1913.4
2017-Aug-26 21:24N 32°19' E 029°55'713.4
2017-Aug-26 20:51N 32°21' E 029°47'  
2017-Aug-24 15:41N 35°43' E 016°19'313.3
2017-Aug-24 15:29N 35°44' E 016°16'4813.6
2017-Aug-24 11:58N 35°57' E 015°19'1014.1
2017-Aug-24 11:16N 36°01' E 015°08'414.4
2017-Aug-24 11:00N 36°02' E 015°03'714.1
2017-Aug-24 10:31N 36°05' E 014°56'714.0
2017-Aug-24 10:00N 36°07' E 014°47'713.9
2017-Aug-24 09:30N 36°10' E 014°39'714.0
2017-Aug-24 09:00N 36°12' E 014°31'714.0
2017-Aug-24 08:30N 36°15' E 014°23'713.8
2017-Aug-24 08:00N 36°17' E 014°15'713.7
2017-Aug-24 07:30N 36°19' E 014°07'713.9
2017-Aug-24 07:00N 36°22' E 013°59'713.9
2017-Aug-24 06:30N 36°25' E 013°51'714.0
2017-Aug-24 06:01N 36°27' E 013°43'714.0
2017-Aug-24 05:30N 36°30' E 013°35'713.8
2017-Aug-24 05:00N 36°33' E 013°27'813.8
2017-Aug-24 04:27N 36°35' E 013°18'613.8
2017-Aug-24 04:00N 36°38' E 013°11'713.7
2017-Aug-24 03:30N 36°40' E 013°03'713.6
2017-Aug-24 03:00N 36°43' E 012°55'713.5
2017-Aug-24 02:30N 36°45' E 012°47'813.5
2017-Aug-24 01:57N 36°48' E 012°39'613.4
2017-Aug-24 01:30N 36°50' E 012°32'713.3
2017-Aug-24 01:00N 36°53' E 012°24'613.1
2017-Aug-24 00:30N 36°55' E 012°16'6913.4
2017-Aug-23 19:22N 37°25' E 010°58'513.3
2017-Aug-23 19:00N 37°26' E 010°52'3413.5
2017-Aug-23 16:29N 37°34' E 010°11'713.5
2017-Aug-23 15:57N 37°33' E 010°02'713.6
2017-Aug-23 15:24N 37°33' E 009°52'513.9
2017-Aug-23 15:00N 37°32' E 009°46'1014.2
2017-Aug-23 14:20N 37°30' E 009°34'1213.9
2017-Aug-23 13:27N 37°28' E 009°19'613.8
2017-Aug-23 13:00N 37°26' E 009°11'1413.5
2017-Aug-23 11:59N 37°24' E 008°54'713.5
2017-Aug-23 11:29N 37°22' E 008°46'613.1
2017-Aug-23 11:00N 37°20' E 008°38'812.4
2017-Aug-23 10:23N 37°17' E 008°29'713.1
2017-Aug-23 09:51N 37°17' E 008°20'513.1
2017-Aug-23 09:30N 37°17' E 008°15'713.0
2017-Aug-23 08:58N 37°17' E 008°06'2113.1
2017-Aug-23 07:22N 37°18' E 007°40'4513.6
2017-Aug-23 04:02N 37°20' E 006°43'413.9
2017-Aug-23 03:47N 37°20' E 006°38'413.8
2017-Aug-23 03:27N 37°20' E 006°33'613.7
2017-Aug-23 03:00N 37°20' E 006°25'713.5
2017-Aug-23 02:30N 37°20' E 006°16'713.3
2017-Aug-23 02:00N 37°19' E 006°08'8213.5
2017-Aug-22 19:54N 37°16' E 004°24'1013.4
2017-Aug-22 19:08N 37°15' E 004°12'313.4
2017-Aug-22 18:55N 37°15' E 004°08'613.5
2017-Aug-22 18:27N 37°15' E 003°60'613.7
2017-Aug-22 18:00N 37°14' E 003°52'713.9
2017-Aug-22 17:30N 37°12' E 003°44'1013.4
2017-Aug-22 16:45N 37°11' E 003°31'1313.5
2017-Aug-22 15:46N 37°08' E 003°15'413.7
2017-Aug-22 15:27N 37°07' E 003°10'1613.4
2017-Aug-22 14:15N 37°03' E 002°50'313.3
2017-Aug-22 14:00N 37°03' E 002°46'713.2
2017-Aug-22 13:30N 37°01' E 002°38'613.1
2017-Aug-22 13:00N 36°60' E 002°30'713.0
2017-Aug-22 12:29N 36°59' E 002°21'612.9
2017-Aug-22 11:59N 36°57' E 002°13'612.8
2017-Aug-22 11:30N 36°56' E 002°06'4912.8
2017-Aug-22 07:41N 36°45' E 001°06'313.3
2017-Aug-22 07:29N 36°45' E 001°03'613.4
2017-Aug-22 07:00N 36°44' E 000°55'713.6
2017-Aug-22 06:30N 36°42' E 000°47'713.5
2017-Aug-22 06:00N 36°41' E 000°39'713.4
2017-Aug-22 05:30N 36°40' E 000°30'613.1
2017-Aug-22 05:00N 36°39' E 000°22'612.9
2017-Aug-22 04:30N 36°38' E 000°14'1712.8
2017-Aug-22 03:09N 36°36' W 000°07'312.8
2017-Aug-22 02:56N 36°36' W 000°10'612.9
2017-Aug-22 02:30N 36°35' W 000°17'712.9
2017-Aug-22 02:00N 36°34' W 000°25'613.0
2017-Aug-22 01:30N 36°33' W 000°33'713.0
2017-Aug-22 01:00N 36°32' W 000°41'712.9
2017-Aug-22 00:30N 36°31' W 000°49'612.9
2017-Aug-22 00:00N 36°30' W 000°57'612.9
2017-Aug-21 23:30N 36°29' W 001°05'612.8
2017-Aug-21 23:00N 36°28' W 001°13'612.8
2017-Aug-21 22:30N 36°27' W 001°21'713.0
2017-Aug-21 21:59N 36°26' W 001°29'813.3
2017-Aug-21 21:21N 36°25' W 001°40'613.3
2017-Aug-21 20:52N 36°24' W 001°47'513.4
2017-Aug-21 20:30N 36°24' W 001°54'813.4
2017-Aug-21 19:55N 36°23' W 002°03'613.5
2017-Aug-21 19:30N 36°22' W 002°10'713.6
2017-Aug-21 18:58N 36°21' W 002°19'713.4
2017-Aug-21 18:28N 36°20' W 002°27'13013.2
2017-Aug-21 08:39N 36°01' W 005°06'313.6
2017-Aug-21 08:28N 36°01' W 005°09'613.1
2017-Aug-21 08:00N 36°00' W 005°17'612.8
2017-Aug-21 07:31N 35°58' W 005°24'10712.5
2017-Aug-20 22:56N 36°11' W 007°35'612.3
2017-Aug-20 22:27N 36°13' W 007°42'612.7
2017-Aug-20 22:00N 36°14' W 007°49'812.8
2017-Aug-20 21:23N 36°16' W 007°59'712.7
2017-Aug-20 20:52N 36°18' W 008°07'512.7
2017-Aug-20 20:28N 36°20' W 008°13'1612.7
2017-Aug-20 19:14N 36°24' W 008°31'412.5
2017-Aug-20 18:56N 36°25' W 008°36'1412.7
2017-Aug-20 17:51N 36°29' W 008°52'612.7
2017-Aug-20 17:23N 36°30' W 008°60'812.9
2017-Aug-20 16:47N 36°32' W 009°09'5512.4
2017-Aug-20 12:24N 37°20' W 009°42'613.1
2017-Aug-20 11:55N 37°26' W 009°44'512.9
2017-Aug-20 11:30N 37°31' W 009°46'612.8
2017-Aug-20 11:00N 37°37' W 009°48'612.5
2017-Aug-20 10:30N 37°43' W 009°50'612.4
2017-Aug-20 10:00N 37°49' W 009°51'612.8
2017-Aug-20 09:30N 37°55' W 009°52'713.0
2017-Aug-20 09:00N 38°02' W 009°54'713.1
2017-Aug-20 08:30N 38°08' W 009°56'713.1
2017-Aug-20 08:00N 38°14' W 009°58'612.7
2017-Aug-20 07:30N 38°21' W 010°01'612.8
2017-Aug-20 07:00N 38°27' W 010°02'713.1
2017-Aug-20 06:30N 38°33' W 010°04'612.9
2017-Aug-20 06:00N 38°39' W 010°06'612.8
2017-Aug-20 05:30N 38°46' W 010°07'713.1
2017-Aug-20 05:00N 38°52' W 010°07'713.0
2017-Aug-20 04:30N 38°59' W 010°07'612.8
2017-Aug-20 04:00N 39°05' W 010°07'713.0
2017-Aug-20 03:30N 39°12' W 010°07'612.9
2017-Aug-20 03:00N 39°18' W 010°07'612.9
2017-Aug-20 02:30N 39°25' W 010°08'713.2
2017-Aug-20 02:00N 39°31' W 010°08'713.1
2017-Aug-20 01:30N 39°38' W 010°09'613.0
2017-Aug-20 01:00N 39°44' W 010°09'713.1
2017-Aug-20 00:30N 39°51' W 010°10'713.3
2017-Aug-20 00:00N 39°58' W 010°10'612.8
2017-Aug-19 23:30N 40°04' W 010°10'612.9
2017-Aug-19 23:00N 40°10' W 010°10'713.0
2017-Aug-19 22:30N 40°17' W 010°11'713.1
2017-Aug-19 22:00N 40°23' W 010°11'713.4
2017-Aug-19 21:30N 40°30' W 010°12'713.3
2017-Aug-19 21:00N 40°37' W 010°12'713.2
2017-Aug-19 20:30N 40°43' W 010°12'713.5
2017-Aug-19 20:00N 40°50' W 010°13'713.6
2017-Aug-19 19:30N 40°57' W 010°13'713.2
2017-Aug-19 19:00N 41°03' W 010°14'713.1
2017-Aug-19 18:30N 41°10' W 010°15'612.9
2017-Aug-19 18:00N 41°16' W 010°15'612.8
2017-Aug-19 17:30N 41°23' W 010°15'612.9
2017-Aug-19 17:00N 41°29' W 010°16'713.0
2017-Aug-19 16:30N 41°36' W 010°16'713.3
2017-Aug-19 15:59N 41°43' W 010°17'1413.2
2017-Aug-19 14:55N 41°57' W 010°17'1513.3
2017-Aug-19 13:50N 42°11' W 010°18'412.5
2017-Aug-19 13:30N 42°15' W 010°19'  
Track history (hours):
 
Tides and Currents Weather Stations Pressure Air Temp Water Temp Dewpoint Dewpoint Depression Visibility Wind Speed Wind Dir Waves Ship Positions

Armada Tuah 303

Last reported at 2017-Aug-28 01:23 UTC. Time now 2017-Sep-19 15:13 UTC.
Position N 31°28' E 032°20'.
Warning: this ship's position is 22 days out of date.

Length 75 m; draft 6 m.

Type: Other ship. MMSI: 538004936.

Date/timePositionNaut miles runAvg speedWind from/ knotsBaromVisibWave heightAir tempDewpointWater temp
2017-Aug-28 01:23N 31°28' E 032°20'0 0.0
2017-Aug-28 00:59N 31°28' E 032°20'0 0.0
2017-Aug-28 00:02N 31°28' E 032°20'0 0.0
2017-Aug-27 23:59N 31°28' E 032°20'0 0.0
2017-Aug-27 23:29N 31°28' E 032°20'0 0.0
2017-Aug-27 22:56N 31°28' E 032°20'0 0.0
2017-Aug-27 22:26N 31°28' E 032°20'0 0.0
2017-Aug-27 21:59N 31°28' E 032°20'0 0.0
2017-Aug-27 21:23N 31°28' E 032°20'0 0.0
2017-Aug-27 20:59N 31°28' E 032°20'0 0.0
2017-Aug-27 20:23N 31°28' E 032°20'0 0.0
2017-Aug-27 19:47N 31°28' E 032°20'0 0.0
2017-Aug-27 19:20N 31°28' E 032°20'0 0.0
2017-Aug-27 18:47N 31°28' E 032°20'0 0.0
2017-Aug-27 18:29N 31°28' E 032°20'0 0.0
2017-Aug-27 17:59N 31°28' E 032°20'0 0.0
2017-Aug-27 17:29N 31°28' E 032°20'0 0.0
2017-Aug-27 16:59N 31°28' E 032°20'0 0.0
2017-Aug-27 16:29N 31°28' E 032°20'0 0.0
2017-Aug-27 15:47N 31°28' E 032°20'0 0.0
2017-Aug-27 15:29N 31°28' E 032°20'0 0.0
2017-Aug-27 14:59N 31°28' E 032°20'0 0.0
2017-Aug-27 14:29N 31°28' E 032°20'0 0.0
2017-Aug-27 13:56N 31°28' E 032°20'0 0.1
2017-Aug-27 13:29N 31°28' E 032°20'0 0.2
2017-Aug-27 13:01N 31°28' E 032°20'1 2.8
2017-Aug-27 12:30N 31°28' E 032°22'1 3.0
2017-Aug-27 12:00N 31°27' E 032°22'2 3.1
2017-Aug-27 11:30N 31°28' E 032°21'1 1.6
2017-Aug-27 10:37N 31°28' E 032°19'0 0.1
2017-Aug-27 10:13N 31°28' E 032°19'9 2.6
2017-Aug-27 06:48N 31°33' E 032°11'312.0
2017-Aug-27 06:30N 31°36' E 032°08'712.1
2017-Aug-27 05:56N 31°41' E 032°02'612.9
2017-Aug-27 05:30N 31°45' E 031°57'713.6
2017-Aug-27 05:00N 31°49' E 031°51'2613.4
2017-Aug-27 03:04N 31°57' E 031°22'113.6
2017-Aug-27 03:00N 31°58' E 031°21'2913.7
2017-Aug-27 00:55N 32°05' E 030°49'513.7
2017-Aug-27 00:31N 32°07' E 030°43'713.6
2017-Aug-27 00:00N 32°09' E 030°35'813.7
2017-Aug-26 23:26N 32°11' E 030°26'913.4
2017-Aug-26 22:48N 32°14' E 030°16'1913.4
2017-Aug-26 21:24N 32°19' E 029°55'713.4
2017-Aug-26 20:51N 32°21' E 029°47'  
2017-Aug-24 15:41N 35°43' E 016°19'313.3
2017-Aug-24 15:29N 35°44' E 016°16'4813.6
2017-Aug-24 11:58N 35°57' E 015°19'1014.1
2017-Aug-24 11:16N 36°01' E 015°08'414.4
2017-Aug-24 11:00N 36°02' E 015°03'714.1
2017-Aug-24 10:31N 36°05' E 014°56'714.0
2017-Aug-24 10:00N 36°07' E 014°47'713.9
2017-Aug-24 09:30N 36°10' E 014°39'714.0
2017-Aug-24 09:00N 36°12' E 014°31'714.0
2017-Aug-24 08:30N 36°15' E 014°23'713.8
2017-Aug-24 08:00N 36°17' E 014°15'713.7
2017-Aug-24 07:30N 36°19' E 014°07'713.9
2017-Aug-24 07:00N 36°22' E 013°59'713.9
2017-Aug-24 06:30N 36°25' E 013°51'714.0
2017-Aug-24 06:01N 36°27' E 013°43'714.0
2017-Aug-24 05:30N 36°30' E 013°35'713.8
2017-Aug-24 05:00N 36°33' E 013°27'813.8
2017-Aug-24 04:27N 36°35' E 013°18'613.8
2017-Aug-24 04:00N 36°38' E 013°11'713.7
2017-Aug-24 03:30N 36°40' E 013°03'713.6
2017-Aug-24 03:00N 36°43' E 012°55'713.5
2017-Aug-24 02:30N 36°45' E 012°47'813.5
2017-Aug-24 01:57N 36°48' E 012°39'613.4
2017-Aug-24 01:30N 36°50' E 012°32'713.3
2017-Aug-24 01:00N 36°53' E 012°24'613.1
2017-Aug-24 00:30N 36°55' E 012°16'6913.4
2017-Aug-23 19:22N 37°25' E 010°58'513.3
2017-Aug-23 19:00N 37°26' E 010°52'3413.5
2017-Aug-23 16:29N 37°34' E 010°11'713.5
2017-Aug-23 15:57N 37°33' E 010°02'713.6
2017-Aug-23 15:24N 37°33' E 009°52'513.9
2017-Aug-23 15:00N 37°32' E 009°46'1014.2
2017-Aug-23 14:20N 37°30' E 009°34'1213.9
2017-Aug-23 13:27N 37°28' E 009°19'613.8
2017-Aug-23 13:00N 37°26' E 009°11'1413.5
2017-Aug-23 11:59N 37°24' E 008°54'713.5
2017-Aug-23 11:29N 37°22' E 008°46'613.1
2017-Aug-23 11:00N 37°20' E 008°38'812.4
2017-Aug-23 10:23N 37°17' E 008°29'713.1
2017-Aug-23 09:51N 37°17' E 008°20'513.1
2017-Aug-23 09:30N 37°17' E 008°15'713.0
2017-Aug-23 08:58N 37°17' E 008°06'2113.1
2017-Aug-23 07:22N 37°18' E 007°40'4513.6
2017-Aug-23 04:02N 37°20' E 006°43'413.9
2017-Aug-23 03:47N 37°20' E 006°38'413.8
2017-Aug-23 03:27N 37°20' E 006°33'613.7
2017-Aug-23 03:00N 37°20' E 006°25'713.5
2017-Aug-23 02:30N 37°20' E 006°16'713.3
2017-Aug-23 02:00N 37°19' E 006°08'8213.5
2017-Aug-22 19:54N 37°16' E 004°24'1013.4
2017-Aug-22 19:08N 37°15' E 004°12'313.4
2017-Aug-22 18:55N 37°15' E 004°08'613.5
2017-Aug-22 18:27N 37°15' E 003°60'613.7
2017-Aug-22 18:00N 37°14' E 003°52'713.9
2017-Aug-22 17:30N 37°12' E 003°44'1013.4
2017-Aug-22 16:45N 37°11' E 003°31'1313.5
2017-Aug-22 15:46N 37°08' E 003°15'413.7
2017-Aug-22 15:27N 37°07' E 003°10'1613.4
2017-Aug-22 14:15N 37°03' E 002°50'313.3
2017-Aug-22 14:00N 37°03' E 002°46'713.2
2017-Aug-22 13:30N 37°01' E 002°38'613.1
2017-Aug-22 13:00N 36°60' E 002°30'713.0
2017-Aug-22 12:29N 36°59' E 002°21'612.9
2017-Aug-22 11:59N 36°57' E 002°13'612.8
2017-Aug-22 11:30N 36°56' E 002°06'4912.8
2017-Aug-22 07:41N 36°45' E 001°06'313.3
2017-Aug-22 07:29N 36°45' E 001°03'613.4
2017-Aug-22 07:00N 36°44' E 000°55'713.6
2017-Aug-22 06:30N 36°42' E 000°47'713.5
2017-Aug-22 06:00N 36°41' E 000°39'713.4
2017-Aug-22 05:30N 36°40' E 000°30'613.1
2017-Aug-22 05:00N 36°39' E 000°22'612.9
2017-Aug-22 04:30N 36°38' E 000°14'1712.8
2017-Aug-22 03:09N 36°36' W 000°07'312.8
2017-Aug-22 02:56N 36°36' W 000°10'612.9
2017-Aug-22 02:30N 36°35' W 000°17'712.9
2017-Aug-22 02:00N 36°34' W 000°25'613.0
2017-Aug-22 01:30N 36°33' W 000°33'713.0
2017-Aug-22 01:00N 36°32' W 000°41'712.9
2017-Aug-22 00:30N 36°31' W 000°49'612.9
2017-Aug-22 00:00N 36°30' W 000°57'612.9
2017-Aug-21 23:30N 36°29' W 001°05'612.8
2017-Aug-21 23:00N 36°28' W 001°13'612.8
2017-Aug-21 22:30N 36°27' W 001°21'713.0
2017-Aug-21 21:59N 36°26' W 001°29'813.3
2017-Aug-21 21:21N 36°25' W 001°40'613.3
2017-Aug-21 20:52N 36°24' W 001°47'513.4
2017-Aug-21 20:30N 36°24' W 001°54'813.4
2017-Aug-21 19:55N 36°23' W 002°03'613.5
2017-Aug-21 19:30N 36°22' W 002°10'713.6
2017-Aug-21 18:58N 36°21' W 002°19'713.4
2017-Aug-21 18:28N 36°20' W 002°27'13013.2
2017-Aug-21 08:39N 36°01' W 005°06'313.6
2017-Aug-21 08:28N 36°01' W 005°09'613.1
2017-Aug-21 08:00N 36°00' W 005°17'612.8
2017-Aug-21 07:31N 35°58' W 005°24'10712.5
2017-Aug-20 22:56N 36°11' W 007°35'612.3
2017-Aug-20 22:27N 36°13' W 007°42'612.7
2017-Aug-20 22:00N 36°14' W 007°49'812.8
2017-Aug-20 21:23N 36°16' W 007°59'712.7
2017-Aug-20 20:52N 36°18' W 008°07'512.7
2017-Aug-20 20:28N 36°20' W 008°13'1612.7
2017-Aug-20 19:14N 36°24' W 008°31'412.5
2017-Aug-20 18:56N 36°25' W 008°36'1412.7
2017-Aug-20 17:51N 36°29' W 008°52'612.7
2017-Aug-20 17:23N 36°30' W 008°60'812.9
2017-Aug-20 16:47N 36°32' W 009°09'5512.4
2017-Aug-20 12:24N 37°20' W 009°42'613.1
2017-Aug-20 11:55N 37°26' W 009°44'512.9
2017-Aug-20 11:30N 37°31' W 009°46'612.8
2017-Aug-20 11:00N 37°37' W 009°48'612.5
2017-Aug-20 10:30N 37°43' W 009°50'612.4
2017-Aug-20 10:00N 37°49' W 009°51'612.8
2017-Aug-20 09:30N 37°55' W 009°52'713.0
2017-Aug-20 09:00N 38°02' W 009°54'713.1
2017-Aug-20 08:30N 38°08' W 009°56'713.1
2017-Aug-20 08:00N 38°14' W 009°58'612.7
2017-Aug-20 07:30N 38°21' W 010°01'612.8
2017-Aug-20 07:00N 38°27' W 010°02'713.1
2017-Aug-20 06:30N 38°33' W 010°04'612.9
2017-Aug-20 06:00N 38°39' W 010°06'612.8
2017-Aug-20 05:30N 38°46' W 010°07'713.1
2017-Aug-20 05:00N 38°52' W 010°07'713.0
2017-Aug-20 04:30N 38°59' W 010°07'612.8
2017-Aug-20 04:00N 39°05' W 010°07'713.0
2017-Aug-20 03:30N 39°12' W 010°07'612.9
2017-Aug-20 03:00N 39°18' W 010°07'612.9
2017-Aug-20 02:30N 39°25' W 010°08'713.2
2017-Aug-20 02:00N 39°31' W 010°08'713.1
2017-Aug-20 01:30N 39°38' W 010°09'613.0
2017-Aug-20 01:00N 39°44' W 010°09'713.1
2017-Aug-20 00:30N 39°51' W 010°10'713.3
2017-Aug-20 00:00N 39°58' W 010°10'612.8
2017-Aug-19 23:30N 40°04' W 010°10'612.9
2017-Aug-19 23:00N 40°10' W 010°10'713.0
2017-Aug-19 22:30N 40°17' W 010°11'713.1
2017-Aug-19 22:00N 40°23' W 010°11'713.4
2017-Aug-19 21:30N 40°30' W 010°12'713.3
2017-Aug-19 21:00N 40°37' W 010°12'713.2
2017-Aug-19 20:30N 40°43' W 010°12'713.5
2017-Aug-19 20:00N 40°50' W 010°13'713.6
2017-Aug-19 19:30N 40°57' W 010°13'713.2
2017-Aug-19 19:00N 41°03' W 010°14'713.1
2017-Aug-19 18:30N 41°10' W 010°15'612.9
2017-Aug-19 18:00N 41°16' W 010°15'612.8
2017-Aug-19 17:30N 41°23' W 010°15'612.9
2017-Aug-19 17:00N 41°29' W 010°16'713.0
2017-Aug-19 16:30N 41°36' W 010°16'713.3
2017-Aug-19 15:59N 41°43' W 010°17'1413.2
2017-Aug-19 14:55N 41°57' W 010°17'1513.3
2017-Aug-19 13:50N 42°11' W 010°18'412.5
2017-Aug-19 13:30N 42°15' W 010°19'  

Dump ship's entire track history